Time;durP1;ratioP1;P1;durP2;ratioP2;P2;SDS_P1;SDS_P2;PMS_P1;PMS_P2;Temp;Humidity;BMP_temperature;BMP_pressure;BME280_temperature;BME280_humidity;BME280_pressure;Samples;Min_cycle;Max_cycle;Signal;HPM_P1;HPM_P2
2021/10/17 00:00:46;;;;;;;0.00;0.00;;;;;;;12.06;88.95;99036.00;5033316;28;20056;-73
2021/10/17 00:03:11;;;;;;;0.00;0.00;;;;;;;12.05;89.09;99026.34;5034056;28;20041;-73
2021/10/17 00:05:37;;;;;;;0.03;0.03;;;;;;;12.07;89.28;99031.41;5031567;28;20422;-73
2021/10/17 00:08:04;;;;;;;0.00;0.00;;;;;;;11.98;89.22;99024.00;5032279;28;20033;-73
2021/10/17 00:10:32;;;;;;;0.38;0.38;;;;;;;11.95;89.16;99015.69;5032102;28;20032;-72
2021/10/17 00:13:05;;;;;;;0.13;0.13;;;;;;;11.98;89.49;99026.69;5032256;28;20098;-72
2021/10/17 00:15:32;;;;;;;0.00;0.00;;;;;;;11.97;88.92;99026.97;5033163;28;20033;-72
2021/10/17 00:18:00;;;;;;;0.00;0.00;;;;;;;11.92;89.12;99027.78;5032217;28;20399;-72
2021/10/17 00:20:25;;;;;;;1.38;1.00;;;;;;;11.87;89.77;99014.44;5019171;28;20029;-70
2021/10/17 00:22:52;;;;;;;0.08;0.08;;;;;;;11.90;89.93;99027.31;5029422;28;20080;-71
2021/10/17 00:25:18;;;;;;;0.00;0.00;;;;;;;11.90;90.44;99032.66;5023591;28;20040;-72
2021/10/17 00:27:44;;;;;;;0.25;0.25;;;;;;;11.85;90.08;99028.16;5013473;28;20122;-71
2021/10/17 00:30:10;;;;;;;0.00;0.00;;;;;;;11.80;90.33;99019.34;5013513;28;20029;-72
2021/10/17 00:32:37;;;;;;;0.00;0.00;;;;;;;11.87;90.43;99022.50;5018924;28;20096;-71
2021/10/17 00:35:06;;;;;;;0.10;0.10;;;;;;;11.83;90.76;99013.44;5019671;28;20030;-72
2021/10/17 00:37:33;;;;;;;0.00;0.00;;;;;;;11.81;90.13;99018.28;5017060;28;20040;-73
2021/10/17 00:39:59;;;;;;;0.00;0.00;;;;;;;11.81;90.39;99023.63;5021570;28;20478;-71
2021/10/17 00:42:24;;;;;;;0.20;0.20;;;;;;;11.75;90.63;99014.06;5032567;28;20033;-71
2021/10/17 00:45:01;;;;;;;0.30;0.30;;;;;;;11.81;90.13;99020.97;5033090;28;20045;-72
2021/10/17 00:47:27;;;;;;;0.10;0.10;;;;;;;11.78;90.10;99024.19;5019075;28;20117;-71
2021/10/17 00:49:52;;;;;;;0.00;0.00;;;;;;;11.78;90.29;99013.47;5012881;28;20052;-71
2021/10/17 00:52:18;;;;;;;0.00;0.00;;;;;;;11.81;89.91;99024.41;5012435;28;20542;-71
2021/10/17 00:54:45;;;;;;;0.00;0.00;;;;;;;11.82;89.99;99017.97;5023761;28;20033;-71
2021/10/17 00:57:12;;;;;;;0.00;0.00;;;;;;;11.83;89.60;99026.84;5032729;28;20036;-72
2021/10/17 00:59:38;;;;;;;0.00;0.00;;;;;;;11.76;89.47;99013.75;5031986;28;20037;-73
2021/10/17 01:02:04;;;;;;;0.17;0.17;;;;;;;11.87;88.80;99024.38;5032528;28;20037;-71
2021/10/17 01:04:36;;;;;;;0.00;0.00;;;;;;;11.76;88.85;99004.94;5032051;28;20060;-70
2021/10/17 01:07:03;;;;;;;0.00;0.00;;;;;;;11.81;88.74;99020.97;5032515;28;20391;-72
2021/10/17 01:09:28;;;;;;;0.00;0.00;;;;;;;11.72;88.95;99003.91;5030914;28;20033;-72
2021/10/17 01:11:54;;;;;;;0.00;0.00;;;;;;;11.79;88.73;99010.53;5031186;28;20032;-73
2021/10/17 01:14:21;;;;;;;0.10;0.10;;;;;;;11.79;88.57;99007.03;5024490;28;20555;-70
2021/10/17 01:16:48;;;;;;;0.00;0.00;;;;;;;11.81;88.76;99011.03;5031794;28;20025;-72
2021/10/17 01:19:14;;;;;;;0.10;0.10;;;;;;;11.76;88.76;99008.41;5030068;28;20037;-70
2021/10/17 01:21:41;;;;;;;0.00;0.00;;;;;;;11.83;89.23;99016.91;5031649;28;20025;-70
2021/10/17 01:24:08;;;;;;;0.00;0.00;;;;;;;11.85;89.10;99024.66;5030756;28;20111;-71
2021/10/17 01:26:34;;;;;;;0.00;0.00;;;;;;;11.82;89.10;99019.88;5029658;28;20033;-73
2021/10/17 01:29:00;;;;;;;0.10;0.10;;;;;;;11.75;88.36;99017.53;5011905;28;20025;-73
2021/10/17 01:31:37;;;;;;;0.00;0.00;;;;;;;11.80;88.75;99020.16;5030779;28;20035;-75
2021/10/17 01:34:04;;;;;;;0.00;0.00;;;;;;;11.78;88.99;99025.00;5032065;28;20033;-72
2021/10/17 01:36:30;;;;;;;0.00;0.00;;;;;;;11.77;89.28;99019.94;5031375;28;20260;-73
2021/10/17 01:38:56;;;;;;;0.00;0.00;;;;;;;11.76;89.02;99023.69;5031726;28;20035;-75
2021/10/17 01:41:22;;;;;;;0.63;0.63;;;;;;;11.78;88.92;99027.69;5030831;28;20041;-75
2021/10/17 01:43:47;;;;;;;0.10;0.10;;;;;;;11.73;88.90;99027.75;5030415;28;20041;-73
2021/10/17 01:46:13;;;;;;;0.10;0.10;;;;;;;11.77;89.43;99034.13;5030719;28;20044;-74
2021/10/17 01:48:38;;;;;;;0.10;0.10;;;;;;;11.77;89.92;99031.44;5030196;28;20029;-74
2021/10/17 01:51:04;;;;;;;0.15;0.15;;;;;;;11.69;89.83;99029.38;5030923;28;20112;-74
2021/10/17 01:53:29;;;;;;;0.00;0.00;;;;;;;11.71;89.67;99027.22;5031763;28;20445;-74
2021/10/17 01:55:59;;;;;;;0.00;0.00;;;;;;;11.74;89.69;99039.25;5031447;28;20028;-75
2021/10/17 01:58:25;;;;;;;0.00;0.00;;;;;;;11.64;89.80;99014.16;5030367;28;20028;-74
2021/10/17 02:00:53;;;;;;;0.00;0.00;;;;;;;11.75;89.78;99030.13;5023784;28;20037;-74
2021/10/17 02:03:19;;;;;;;0.00;0.00;;;;;;;11.74;89.58;99034.66;5031640;28;20025;-73
2021/10/17 02:05:45;;;;;;;0.00;0.00;;;;;;;11.71;90.14;99032.56;5030502;28;20033;-73
2021/10/17 02:08:10;;;;;;;0.00;0.00;;;;;;;11.70;89.58;99047.06;5030890;28;20033;-73
2021/10/17 02:10:36;;;;;;;0.00;0.00;;;;;;;11.71;89.46;99045.19;5031028;28;20107;-73
2021/10/17 02:13:02;;;;;;;0.00;0.00;;;;;;;11.62;90.03;99036.94;5030632;28;20025;-73
2021/10/17 02:15:27;;;;;;;0.00;0.00;;;;;;;11.61;89.80;99044.19;5029388;28;20029;-75
2021/10/17 02:17:53;;;;;;;0.00;0.00;;;;;;;11.49;89.70;99031.16;5029841;28;20040;-72
2021/10/17 02:20:19;;;;;;;0.20;0.20;;;;;;;11.44;89.97;99039.25;5022901;28;20057;-75
2021/10/17 02:22:44;;;;;;;0.00;0.00;;;;;;;11.44;90.56;99049.97;5009980;28;20029;-72
2021/10/17 02:25:10;;;;;;;0.00;0.00;;;;;;;11.41;90.62;99049.72;5011532;28;20029;-73
2021/10/17 02:27:35;;;;;;;0.00;0.00;;;;;;;11.38;91.33;99048.41;5015621;28;20029;-71
2021/10/17 02:30:01;;;;;;;0.00;0.00;;;;;;;11.33;91.75;99046.56;5030886;28;20435;-73
2021/10/17 02:32:28;;;;;;;0.10;0.10;;;;;;;11.32;91.81;99053.00;5030310;28;20017;-73
2021/10/17 02:34:54;;;;;;;0.00;0.00;;;;;;;11.34;92.20;99058.88;5030303;28;20406;-73
2021/10/17 02:37:19;;;;;;;0.00;0.00;;;;;;;11.36;92.87;99063.94;5030821;28;20022;-72
2021/10/17 02:39:45;;;;;;;0.00;0.00;;;;;;;11.35;92.74;99057.81;5030526;28;20049;-75
2021/10/17 02:42:10;;;;;;;0.30;0.30;;;;;;;11.34;92.28;99058.88;5012029;28;20411;-73
2021/10/17 02:44:35;;;;;;;0.00;0.00;;;;;;;11.32;92.73;99052.22;5022805;28;20026;-75
2021/10/17 02:47:01;;;;;;;0.10;0.10;;;;;;;11.07;92.81;99021.91;5034462;28;20438;-75
2021/10/17 02:49:26;;;;;;;0.32;0.32;;;;;;;11.28;93.05;99067.22;5034775;28;20033;-72
2021/10/17 02:51:52;;;;;;;0.22;0.22;;;;;;;11.16;92.83;99051.53;5019189;28;20022;-72
2021/10/17 02:54:17;;;;;;;0.10;0.10;;;;;;;11.16;93.41;99055.00;5023997;28;20029;-71
2021/10/17 02:56:44;;;;;;;0.10;0.10;;;;;;;11.19;93.35;99064.34;5033243;28;20524;-74
2021/10/17 02:59:09;;;;;;;0.20;0.20;;;;;;;11.17;93.56;99070.00;5034510;28;20041;-73
2021/10/17 03:01:35;;;;;;;0.35;0.35;;;;;;;11.14;93.82;99069.75;5033652;28;20466;-73
2021/10/17 03:04:00;;;;;;;0.20;0.20;;;;;;;11.12;93.90;99074.56;5034609;28;20036;-74
2021/10/17 03:06:28;;;;;;;0.08;0.08;;;;;;;11.09;94.73;99070.59;5034321;28;20028;-74
2021/10/17 03:08:54;;;;;;;0.10;0.10;;;;;;;11.05;94.48;99067.66;5034261;28;20067;-76
2021/10/17 03:11:26;;;;;;;0.45;0.45;;;;;;;10.91;94.90;99053.31;5033272;28;20037;-73
2021/10/17 03:13:54;;;;;;;0.10;0.10;;;;;;;11.09;94.62;99085.84;5033897;28;20029;-74
2021/10/17 03:16:20;;;;;;;0.00;0.00;;;;;;;11.01;94.61;99068.50;5033147;28;20025;-74
2021/10/17 03:18:48;;;;;;;0.00;0.00;;;;;;;11.09;94.95;99083.19;5034008;28;20026;-73
2021/10/17 03:21:14;;;;;;;;;;;;;;;11.10;94.83;99090.13;5021617;28;20462;-74
2021/10/17 03:23:39;;;;;;;0.00;0.00;;;;;;;11.07;94.79;99085.31;5033641;28;20449;-74
2021/10/17 03:26:05;;;;;;;0.08;0.08;;;;;;;11.00;94.62;99073.06;5034106;28;20057;-73
2021/10/17 03:28:30;;;;;;;0.10;0.10;;;;;;;11.08;94.63;99081.56;5032645;28;20087;-74
2021/10/17 03:30:56;;;;;;;0.00;0.00;;;;;;;11.10;95.04;99082.09;5034010;28;20029;-74
2021/10/17 03:33:22;;;;;;;0.00;0.00;;;;;;;11.11;95.07;99091.72;5033865;28;20048;-74
2021/10/17 03:35:48;;;;;;;0.00;0.00;;;;;;;11.03;95.21;99085.06;5033847;28;20032;-74
2021/10/17 03:38:14;;;;;;;0.00;0.00;;;;;;;11.11;94.40;99094.38;5033865;28;20440;-74
2021/10/17 03:40:42;;;;;;;0.00;0.00;;;;;;;11.10;94.59;99090.91;5032456;28;20405;-74
2021/10/17 03:43:08;;;;;;;0.00;0.00;;;;;;;11.11;94.88;99092.53;5033541;28;20033;-73
2021/10/17 03:45:33;;;;;;;0.00;0.00;;;;;;;11.05;94.65;99088.28;5033217;28;20399;-73
2021/10/17 03:47:59;;;;;;;0.00;0.00;;;;;;;11.09;94.85;99094.66;5034014;28;20022;-74
2021/10/17 03:50:24;;;;;;;0.10;0.10;;;;;;;11.09;94.69;99097.34;5032202;28;20053;-75
2021/10/17 03:52:50;;;;;;;0.10;0.10;;;;;;;11.00;94.50;99101.69;5031448;28;20029;-75
2021/10/17 03:55:15;;;;;;;0.98;0.95;;;;;;;11.05;94.89;99117.72;5032642;28;20033;-74
2021/10/17 03:57:41;;;;;;;0.00;0.00;;;;;;;11.02;95.15;99105.69;5032181;28;20490;-74
2021/10/17 04:00:07;;;;;;;0.00;0.00;;;;;;;10.87;95.72;99089.72;5032323;28;20124;-74
2021/10/17 04:02:34;;;;;;;0.00;0.00;;;;;;;11.03;95.33;99117.19;5031473;28;20030;-74
2021/10/17 04:05:00;;;;;;;0.00;0.00;;;;;;;11.04;95.43;99118.78;5032155;28;20040;-73
2021/10/17 04:07:26;;;;;;;0.10;0.10;;;;;;;11.01;95.36;99119.34;5033801;28;20104;-74
2021/10/17 04:09:51;;;;;;;0.00;0.00;;;;;;;11.00;95.55;99120.44;5018862;28;20496;-75
2021/10/17 04:12:17;;;;;;;0.10;0.10;;;;;;;10.94;95.09;99105.50;5032309;28;20477;-77
2021/10/17 04:14:43;;;;;;;0.20;0.20;;;;;;;11.00;95.04;99123.91;5031949;28;20084;-76
2021/10/17 04:17:08;;;;;;;0.08;0.08;;;;;;;10.98;95.10;99122.56;5031478;28;20509;-75
2021/10/17 04:19:34;;;;;;;1.27;0.70;;;;;;;10.99;95.04;99130.31;5031796;28;20500;-73
2021/10/17 04:21:59;;;;;;;0.05;0.05;;;;;;;10.92;94.46;99118.34;5032415;28;20506;-73
2021/10/17 04:24:25;;;;;;;0.00;0.00;;;;;;;11.02;94.76;99128.97;5031886;28;20492;-72
2021/10/17 04:26:50;;;;;;;0.05;0.05;;;;;;;10.97;94.97;99135.13;5030795;28;20124;-71
2021/10/17 04:29:16;;;;;;;0.00;0.00;;;;;;;11.01;94.83;99144.22;5033067;28;20034;-71
2021/10/17 04:31:41;;;;;;;0.57;0.52;;;;;;;11.02;94.81;99143.16;5032484;28;20480;-71
2021/10/17 04:34:07;;;;;;;0.00;0.00;;;;;;;10.98;94.96;99142.09;5030846;28;20496;-72
2021/10/17 04:36:32;;;;;;;0.00;0.00;;;;;;;10.99;94.54;99135.69;5031601;28;20573;-72
2021/10/17 04:38:58;;;;;;;0.15;0.15;;;;;;;10.96;94.68;99136.25;5023640;28;20121;-72
2021/10/17 04:41:24;;;;;;;0.00;0.00;;;;;;;11.00;94.40;99145.31;5013061;28;20054;-72
2021/10/17 04:43:49;;;;;;;0.00;0.00;;;;;;;11.00;93.57;99153.34;5011444;28;20678;-72
2021/10/17 04:46:15;;;;;;;0.28;0.28;;;;;;;10.99;94.59;99157.09;5019985;28;20061;-72
2021/10/17 04:48:40;;;;;;;0.25;0.25;;;;;;;10.91;93.99;99143.47;5032058;28;20580;-72
2021/10/17 04:51:06;;;;;;;0.00;0.00;;;;;;;11.01;94.47;99162.97;5031451;28;20037;-73
2021/10/17 04:53:31;;;;;;;0.10;0.10;;;;;;;11.00;94.05;99163.25;5032070;28;20104;-72
2021/10/17 04:55:57;;;;;;;0.50;0.50;;;;;;;11.03;93.69;99165.34;5026308;28;20118;-73
2021/10/17 04:58:25;;;;;;;0.10;0.10;;;;;;;11.01;93.72;99168.31;5030954;28;20041;-73
2021/10/17 05:00:51;;;;;;;0.00;0.00;;;;;;;11.03;93.61;99168.84;5032149;28;20033;-73
2021/10/17 05:03:16;;;;;;;0.10;0.10;;;;;;;11.12;93.14;99184.31;5031701;28;20120;-73
2021/10/17 05:05:42;;;;;;;0.00;0.00;;;;;;;11.14;92.97;99182.16;5031235;28;20057;-73
2021/10/17 05:08:08;;;;;;;0.22;0.22;;;;;;;11.18;93.19;99185.88;5032426;28;20022;-73
2021/10/17 05:10:34;;;;;;;0.00;0.00;;;;;;;11.05;92.59;99165.91;5031198;28;20387;-74
2021/10/17 05:13:00;;;;;;;0.00;0.00;;;;;;;11.23;92.11;99193.91;5030755;28;20033;-72
2021/10/17 05:15:25;;;;;;;0.00;0.00;;;;;;;11.25;91.73;99190.94;5016096;28;20025;-73
2021/10/17 05:17:51;;;;;;;0.08;0.08;;;;;;;11.27;92.02;99192.25;5031234;28;20508;-72
2021/10/17 05:20:16;;;;;;;0.00;0.00;;;;;;;11.31;91.04;99198.66;5030982;28;20033;-73
2021/10/17 05:22:42;;;;;;;0.63;0.63;;;;;;;11.27;91.11;99204.88;5031238;28;20022;-72
2021/10/17 05:25:08;;;;;;;0.00;0.00;;;;;;;11.28;91.16;99209.13;5031213;28;20410;-73
2021/10/17 05:27:33;;;;;;;0.00;0.00;;;;;;;11.27;91.46;99204.88;5028082;28;20033;-70
2021/10/17 05:29:58;;;;;;;0.00;0.00;;;;;;;11.26;91.20;99192.56;5030923;28;20095;-70
2021/10/17 05:32:24;;;;;;;0.10;0.10;;;;;;;11.34;91.86;99216.06;5030983;28;20028;-71
2021/10/17 05:34:49;;;;;;;0.00;0.00;;;;;;;11.30;92.35;99215.00;5028347;28;20452;-70
2021/10/17 05:37:15;;;;;;;0.10;0.10;;;;;;;11.36;92.26;99219.25;5028505;28;20026;-70
2021/10/17 05:39:40;;;;;;;0.22;0.22;;;;;;;11.35;92.14;99223.00;5030491;28;20057;-72
2021/10/17 05:42:06;;;;;;;0.00;0.00;;;;;;;11.35;91.81;99221.16;5031362;28;20021;-74
2021/10/17 05:44:31;;;;;;;0.20;0.20;;;;;;;11.39;92.28;99229.44;5030987;28;20486;-73
2021/10/17 05:46:57;;;;;;;0.10;0.10;;;;;;;11.44;92.10;99232.06;5019048;28;20061;-72
2021/10/17 05:49:22;;;;;;;0.00;0.00;;;;;;;11.48;92.21;99237.66;5022032;28;20095;-70
2021/10/17 05:51:48;;;;;;;0.10;0.10;;;;;;;11.42;92.20;99220.81;5030761;28;20025;-74
2021/10/17 05:54:13;;;;;;;0.00;0.00;;;;;;;11.53;91.99;99237.63;5029647;28;20041;-74
2021/10/17 05:56:39;;;;;;;0.00;0.00;;;;;;;11.50;91.67;99222.91;5029894;28;20026;-75
2021/10/17 05:59:08;;;;;;;0.00;0.00;;;;;;;11.64;91.68;99246.41;5029305;28;20099;-74
2021/10/17 06:01:35;;;;;;;0.00;0.00;;;;;;;11.65;91.31;99235.41;5028285;28;20044;-70
2021/10/17 06:04:01;;;;;;;0.00;0.00;;;;;;;11.72;90.79;99242.34;5029815;28;20025;-71
2021/10/17 06:06:27;;;;;;;0.00;0.00;;;;;;;11.78;91.07;99252.75;5029604;28;20077;-71
2021/10/17 06:08:54;;;;;;;0.80;0.80;;;;;;;11.78;90.81;99236.66;5030335;28;20421;-71
2021/10/17 06:11:20;;;;;;;0.00;0.00;;;;;;;11.92;90.15;99250.22;5031467;28;20033;-71
2021/10/17 06:13:45;;;;;;;0.75;0.75;;;;;;;11.92;90.07;99247.53;5029682;28;20029;-71
2021/10/17 06:16:11;;;;;;;0.00;0.00;;;;;;;11.95;89.62;99248.88;5030350;28;20033;-75
2021/10/17 06:18:36;;;;;;;0.10;0.10;;;;;;;12.02;88.88;99249.38;5028043;28;20120;-75
2021/10/17 06:21:02;;;;;;;0.00;0.00;;;;;;;12.17;88.83;99256.50;5028839;28;20038;-74
2021/10/17 06:23:28;;;;;;;0.00;0.00;;;;;;;12.24;88.84;99261.53;5029193;28;20025;-80
2021/10/17 06:25:54;;;;;;;0.00;0.00;;;;;;;12.30;87.69;99263.09;5028914;28;20390;-71
2021/10/17 06:28:19;;;;;;;0.00;0.00;;;;;;;12.39;87.49;99258.72;5030345;28;20044;-72
2021/10/17 06:30:45;;;;;;;0.08;0.08;;;;;;;12.45;87.39;99265.66;5030420;28;20030;-78
2021/10/17 06:33:10;;;;;;;0.00;0.00;;;;;;;12.56;87.42;99263.66;5045392;28;20033;-76
2021/10/17 06:35:36;;;;;;;0.03;0.03;;;;;;;12.60;86.22;99266.59;5028647;28;20030;-76
2021/10/17 06:38:02;;;;;;;0.10;0.10;;;;;;;12.63;86.15;99258.78;5045726;28;20038;-75
2021/10/17 06:40:27;;;;;;;0.00;0.00;;;;;;;12.82;86.44;99276.81;5027898;28;20056;-76
2021/10/17 06:42:53;;;;;;;0.00;0.00;;;;;;;12.87;86.79;99265.22;5030670;28;20048;-76
2021/10/17 06:45:18;;;;;;;0.13;0.13;;;;;;;13.03;85.67;99277.38;5028125;28;20116;-74
2021/10/17 06:47:43;;;;;;;0.00;0.00;;;;;;;13.11;84.80;99290.19;5029965;28;20117;-74
2021/10/17 06:50:09;;;;;;;0.10;0.10;;;;;;;13.08;83.70;99266.56;5026283;28;20030;-73
2021/10/17 06:52:35;;;;;;;0.00;0.00;;;;;;;13.28;84.31;99288.88;5030376;28;20029;-73
2021/10/17 06:55:00;;;;;;;0.20;0.20;;;;;;;13.33;83.45;99286.16;5030610;28;20032;-72
2021/10/17 06:57:25;;;;;;;0.00;0.00;;;;;;;13.43;82.89;99291.41;5014739;28;20033;-87
2021/10/17 06:59:51;;;;;;;0.10;0.10;;;;;;;13.54;82.94;99292.09;5009619;28;20034;-81
2021/10/17 07:02:16;;;;;;;0.00;0.00;;;;;;;13.65;84.03;99295.44;5024368;28;20029;-86
2021/10/17 07:04:42;;;;;;;0.35;0.35;;;;;;;13.67;82.12;99292.47;5028543;28;20029;-84
2021/10/17 07:07:07;;;;;;;0.00;0.00;;;;;;;13.66;77.57;99293.53;5029218;28;20049;-89
2021/10/17 07:09:33;;;;;;;0.10;0.10;;;;;;;13.65;75.58;99306.19;5027650;28;20041;-89
2021/10/17 07:11:58;;;;;;;0.10;0.10;;;;;;;13.67;77.04;99297.81;5018679;28;20026;-75
2021/10/17 07:14:24;;;;;;;0.10;0.10;;;;;;;13.69;77.78;99303.72;5028815;28;20148;-76
2021/10/17 07:16:49;;;;;;;0.15;0.15;;;;;;;13.73;75.97;99304.72;5023735;28;20073;-78
2021/10/17 07:19:15;;;;;;;0.00;0.00;;;;;;;13.71;77.04;99305.03;5029060;28;20087;-79
2021/10/17 07:21:40;;;;;;;0.10;0.10;;;;;;;13.72;76.70;99311.19;5028489;28;20498;-82
2021/10/17 07:24:06;;;;;;;0.00;0.00;;;;;;;13.72;76.93;99309.31;5027504;28;20021;-75
2021/10/17 07:26:31;;;;;;;0.00;0.00;;;;;;;13.75;78.00;99308.72;5028938;28;20037;-75
2021/10/17 07:28:56;;;;;;;0.00;0.00;;;;;;;13.77;77.85;99306.56;5031804;28;20504;-73
2021/10/17 07:31:22;;;;;;;0.00;0.00;;;;;;;13.76;77.68;99306.84;5032446;28;20067;-75
2021/10/17 07:33:47;;;;;;;0.00;0.00;;;;;;;13.73;76.14;99293.97;5033260;28;20108;-73
2021/10/17 07:36:13;;;;;;;0.00;0.00;;;;;;;13.84;76.94;99314.28;5023175;28;20069;-70
2021/10/17 07:38:38;;;;;;;0.10;0.10;;;;;;;13.86;75.91;99316.66;5020092;28;20167;-72
2021/10/17 07:41:03;;;;;;;0.00;0.00;;;;;;;13.91;75.63;99320.09;5030944;28;20041;-75
2021/10/17 07:43:29;;;;;;;0.03;0.03;;;;;;;13.91;74.44;99322.78;5025689;28;20408;-75
2021/10/17 07:45:54;;;;;;;0.00;0.00;;;;;;;13.92;73.99;99327.03;5021606;28;20040;-71
2021/10/17 07:48:20;;;;;;;0.00;0.00;;;;;;;13.87;73.64;99318.25;5032467;28;20111;-81
2021/10/17 07:50:45;;;;;;;0.20;0.20;;;;;;;13.88;74.86;99314.50;5032323;28;20604;-77
2021/10/17 07:53:11;;;;;;;0.10;0.10;;;;;;;13.94;73.90;99324.06;5032531;28;20514;-88
2021/10/17 07:55:36;;;;;;;0.00;0.00;;;;;;;13.96;72.92;99332.63;5025461;28;20070;-85
2021/10/17 07:58:03;;;;;;;0.00;0.00;;;;;;;13.97;72.85;99328.06;5027719;28;20025;-88
2021/10/17 08:00:30;;;;;;;0.00;0.00;;;;;;;13.98;73.81;99325.06;5027927;28;20119;-80
2021/10/17 08:02:56;;;;;;;0.00;0.00;;;;;;;14.05;73.79;99332.78;5021644;28;20037;-86
2021/10/17 08:05:22;;;;;;;0.00;0.00;;;;;;;14.08;71.83;99335.66;5032577;28;20508;-86
2021/10/17 08:07:49;;;;;;;0.00;0.00;;;;;;;14.03;70.76;99329.59;5031525;28;20040;-83
2021/10/17 08:10:14;;;;;;;0.00;0.00;;;;;;;14.07;72.64;99330.59;5032137;28;20104;-83
2021/10/17 08:12:40;;;;;;;0.10;0.10;;;;;;;14.08;73.24;99334.88;5031963;28;20128;-83
2021/10/17 08:15:07;;;;;;;0.05;0.05;;;;;;;14.16;72.87;99341.47;5031934;28;20033;-84
2021/10/17 08:17:33;;;;;;;0.03;0.03;;;;;;;14.17;71.50;99337.72;5032009;28;20029;-84
2021/10/17 08:19:59;;;;;;;0.00;0.00;;;;;;;14.16;70.96;99338.78;5032082;28;20969;-84
2021/10/17 08:22:24;;;;;;;0.10;0.10;;;;;;;14.13;69.91;99342.09;5014230;28;20034;-84
2021/10/17 08:24:51;;;;;;;0.00;0.00;;;;;;;14.14;69.88;99338.31;5029061;28;20475;-83
2021/10/17 08:27:16;;;;;;;0.00;0.00;;;;;;;14.18;71.50;99344.69;5031401;28;20029;-83
2021/10/17 08:29:42;;;;;;;0.00;0.00;;;;;;;14.20;71.17;99340.59;5047908;28;20025;-84
2021/10/17 08:32:08;;;;;;;0.22;0.22;;;;;;;14.17;70.17;99333.16;5047965;28;20041;-84
2021/10/17 08:34:33;;;;;;;0.10;0.10;;;;;;;14.24;71.26;99333.56;5031459;28;20036;-84
2021/10/17 08:36:59;;;;;;;0.00;0.00;;;;;;;14.33;71.16;99338.25;5031471;28;20088;-84
2021/10/17 08:39:24;;;;;;;0.10;0.10;;;;;;;14.42;70.67;99339.19;5031360;28;20067;-85
2021/10/17 08:41:50;;;;;;;0.10;0.10;;;;;;;14.47;71.87;99338.31;5030425;28;20479;-89
2021/10/17 08:44:17;;;;;;;0.10;0.10;;;;;;;14.56;70.33;99345.44;5031674;28;20034;-87
2021/10/17 08:46:44;;;;;;;0.10;0.10;;;;;;;14.63;69.18;99339.66;5031278;28;20559;-86
2021/10/17 08:49:10;;;;;;;0.00;0.00;;;;;;;14.57;69.42;99332.75;5030628;28;20053;-86
2021/10/17 08:51:36;;;;;;;0.00;0.00;;;;;;;14.66;69.24;99339.09;5022032;28;20486;-85
2021/10/17 08:54:03;;;;;;;0.10;0.10;;;;;;;14.70;70.18;99339.31;5024698;28;20033;-86
2021/10/17 08:56:29;;;;;;;0.00;0.00;;;;;;;14.77;68.44;99339.72;5015863;28;20034;-85
2021/10/17 08:58:54;;;;;;;0.00;0.00;;;;;;;14.77;69.50;99334.34;5016377;28;20064;-87
2021/10/17 09:01:20;;;;;;;0.10;0.10;;;;;;;14.84;69.34;99340.13;5047190;28;20030;-86
2021/10/17 09:03:56;;;;;;;0.00;0.00;;;;;;;14.92;67.35;99344.03;5030741;28;20037;-86
2021/10/17 09:06:26;;;;;;;0.00;0.00;;;;;;;14.89;67.82;99337.34;5031085;28;20065;-86
2021/10/17 09:09:15;;;;;;;0.00;0.00;;;;;;;14.94;66.61;99349.13;5047354;28;20489;-86
2021/10/17 09:11:52;;;;;;;0.10;0.10;;;;;;;14.94;67.52;99351.81;5031130;28;20117;-86
2021/10/17 09:14:23;;;;;;;0.10;0.10;;;;;;;14.95;66.87;99348.84;5030784;28;20034;-86
2021/10/17 09:16:51;;;;;;;0.10;0.10;;;;;;;14.98;67.45;99352.81;5030491;28;20044;-86
2021/10/17 09:19:22;;;;;;;0.75;0.75;;;;;;;14.90;65.53;99354.28;5030885;28;20478;-86
2021/10/17 09:21:53;;;;;;;0.08;0.08;;;;;;;14.92;66.49;99354.81;5030491;28;20045;-86
2021/10/17 09:24:28;;;;;;;0.10;0.10;;;;;;;14.91;66.94;99347.03;5047615;28;20432;-86
2021/10/17 09:27:19;;;;;;;0.00;0.00;;;;;;;14.94;67.41;99358.00;5047011;28;20033;-87
2021/10/17 09:29:52;;;;;;;0.10;0.10;;;;;;;14.94;67.69;99352.63;5046974;28;20465;-86
2021/10/17 09:32:22;;;;;;;0.00;0.00;;;;;;;15.00;67.65;99350.63;5030458;28;20405;-85
2021/10/17 09:34:52;;;;;;;0.00;0.00;;;;;;;14.79;68.64;99317.88;5030399;28;20029;-86
2021/10/17 09:37:18;;;;;;;0.00;0.00;;;;;;;15.07;69.56;99356.41;5034112;28;20484;-87
2021/10/17 09:39:51;;;;;;;0.03;0.03;;;;;;;15.08;66.89;99349.13;5049768;28;20096;-86
2021/10/17 09:42:19;;;;;;;0.10;0.10;;;;;;;15.06;67.15;99354.81;5030308;28;20068;-86
2021/10/17 09:44:45;;;;;;;0.00;0.00;;;;;;;15.00;68.00;99348.72;5046606;28;20049;-86
2021/10/17 09:47:11;;;;;;;0.10;0.10;;;;;;;15.02;68.45;99346.53;5047117;28;20029;-85
2021/10/17 09:49:39;;;;;;;0.00;0.00;;;;;;;14.94;67.46;99347.22;5030481;28;20060;-86
2021/10/17 09:52:19;;;;;;;0.00;0.00;;;;;;;14.89;68.97;99350.00;5046254;28;20057;-85
2021/10/17 09:54:49;;;;;;;0.30;0.30;;;;;;;14.82;68.31;99353.09;5029875;28;20033;-86
2021/10/17 09:57:15;;;;;;;0.00;0.00;;;;;;;14.79;70.23;99353.66;5030224;28;20028;-86
2021/10/17 09:59:41;;;;;;;0.10;0.10;;;;;;;14.80;70.01;99346.41;5030176;28;20033;-85
2021/10/17 10:02:11;;;;;;;0.10;0.10;;;;;;;14.80;69.29;99349.09;5029788;28;20060;-86
2021/10/17 10:04:43;;;;;;;0.00;0.00;;;;;;;14.85;68.89;99357.88;5030049;28;20036;-85
2021/10/17 10:07:12;;;;;;;0.10;0.10;;;;;;;14.83;68.10;99348.50;5029949;28;20096;-86
2021/10/17 10:09:38;;;;;;;0.00;0.00;;;;;;;14.81;68.85;99342.63;5029884;28;20172;-86
2021/10/17 10:12:06;;;;;;;0.10;0.10;;;;;;;14.79;69.24;99340.22;5029742;28;20577;-86
2021/10/17 10:14:33;;;;;;;0.07;0.07;;;;;;;14.73;67.77;99336.81;5029855;28;20140;-85
2021/10/17 10:16:59;;;;;;;0.10;0.10;;;;;;;14.67;68.01;99335.31;5029668;28;20045;-85
2021/10/17 10:19:25;;;;;;;0.00;0.00;;;;;;;14.61;68.91;99330.28;5029717;28;20490;-85
2021/10/17 10:21:51;;;;;;;0.20;0.20;;;;;;;14.58;69.09;99337.84;5046096;28;20060;-86
2021/10/17 10:24:18;;;;;;;0.00;0.00;;;;;;;14.56;69.40;99341.91;5029827;28;20087;-85
2021/10/17 10:26:52;;;;;;;0.00;0.00;;;;;;;14.48;69.57;99343.41;5029386;28;20041;-85
2021/10/17 10:29:43;;;;;;;0.00;0.00;;;;;;;14.43;69.58;99329.22;5046038;28;20037;-86
2021/10/17 10:32:22;;;;;;;0.10;0.10;;;;;;;14.38;70.09;99333.59;5027149;28;20041;-87
2021/10/17 10:34:53;;;;;;;0.00;0.00;;;;;;;14.36;70.01;99326.94;5029618;28;20024;-87
2021/10/17 10:37:20;;;;;;;0.10;0.10;;;;;;;14.31;69.46;99340.47;5029584;28;20033;-86
2021/10/17 10:40:17;;;;;;;0.00;0.00;;;;;;;14.33;70.71;99332.88;5045290;28;20050;-86
2021/10/17 10:42:49;;;;;;;0.30;0.30;;;;;;;14.31;70.29;99330.50;5033767;28;20041;-85
2021/10/17 10:45:35;;;;;;;0.00;0.00;;;;;;;14.27;70.86;99320.59;5029516;28;20049;-85
2021/10/17 10:48:13;;;;;;;0.10;0.10;;;;;;;14.23;70.25;99317.72;5029219;28;20060;-85
2021/10/17 10:50:54;;;;;;;0.10;0.10;;;;;;;14.30;70.81;99311.97;5046024;28;20028;-85
2021/10/17 10:53:46;;;;;;;0.10;0.10;;;;;;;14.36;69.80;99316.16;5029609;28;20048;-85
2021/10/17 10:56:38;;;;;;;0.10;0.10;;;;;;;14.37;69.23;99329.31;5043525;28;20090;-85
2021/10/17 10:59:04;;;;;;;0.00;0.00;;;;;;;14.35;69.77;99315.34;5045933;28;20034;-84
2021/10/17 11:01:52;;;;;;;0.10;0.10;;;;;;;14.38;68.92;99316.69;5029410;28;20023;-85
2021/10/17 11:04:45;;;;;;;0.00;0.00;;;;;;;14.47;69.29;99316.78;5049009;28;20551;-86
2021/10/17 11:07:31;;;;;;;0.10;0.10;;;;;;;14.56;69.44;99317.69;5052588;28;20497;-87
2021/10/17 11:10:22;;;;;;;0.00;0.00;;;;;;;14.63;68.25;99312.72;5033499;28;20429;-85
2021/10/17 11:13:01;;;;;;;0.00;0.00;;;;;;;14.70;68.29;99315.88;5049528;28;20029;-86
2021/10/17 11:15:30;;;;;;;0.10;0.10;;;;;;;14.75;66.57;99311.50;5034078;28;20041;-85
2021/10/17 11:18:00;;;;;;;0.10;0.10;;;;;;;14.74;64.50;99313.38;5033790;28;20029;-85
2021/10/17 11:20:35;;;;;;;0.00;0.00;;;;;;;14.67;65.59;99296.81;5050026;28;20049;-85
2021/10/17 11:23:02;;;;;;;0.45;0.45;;;;;;;14.74;65.52;99308.00;5049500;28;20029;-86
2021/10/17 11:25:29;;;;;;;0.10;0.10;;;;;;;14.72;65.28;99307.50;5032889;28;20033;-87
2021/10/17 11:27:55;;;;;;;0.10;0.10;;;;;;;14.78;64.78;99309.03;5032632;28;20026;-86
2021/10/17 11:30:28;;;;;;;0.00;0.00;;;;;;;14.88;65.74;99310.72;5049326;28;20493;-86
2021/10/17 11:32:55;;;;;;;0.00;0.00;;;;;;;14.94;65.21;99309.53;5049057;28;20053;-86
2021/10/17 11:35:32;;;;;;;0.00;0.00;;;;;;;15.00;64.09;99307.53;5049233;28;20470;-85